createdAt,value
2018-09-26T00:01:27.329Z,6.77
2018-09-26T00:05:00.695Z,6.27
2018-09-26T00:08:33.907Z,7.20
2018-09-26T00:12:07.409Z,6.27
2018-09-26T00:15:40.628Z,5.90
2018-09-26T00:19:13.859Z,6.70
2018-09-26T00:22:47.067Z,6.50
2018-09-26T00:26:20.289Z,6.83
2018-09-26T00:29:53.556Z,5.90
2018-09-26T00:33:26.763Z,5.47
2018-09-26T00:36:59.976Z,6.33
2018-09-26T00:40:33.191Z,5.90
2018-09-26T00:44:06.399Z,6.00
2018-09-26T00:47:39.640Z,6.37
2018-09-26T00:51:12.867Z,4.77
2018-09-26T00:54:46.095Z,5.77
2018-09-26T00:58:19.296Z,6.03
2018-09-26T01:01:52.507Z,6.80
2018-09-26T01:05:25.719Z,5.70
2018-09-26T01:08:58.945Z,5.67
2018-09-26T01:12:32.156Z,7.00
2018-09-26T01:16:05.371Z,5.17
2018-09-26T01:19:38.572Z,5.33
2018-09-26T01:23:12.447Z,5.10
2018-09-26T01:26:45.642Z,4.83
2018-09-26T01:30:18.868Z,5.70
2018-09-26T01:33:52.087Z,5.80
2018-09-26T01:37:25.335Z,6.83
2018-09-26T01:40:58.548Z,5.33
2018-09-26T01:44:31.788Z,4.97
2018-09-26T01:48:05.030Z,6.10
2018-09-26T01:51:38.295Z,4.30
2018-09-26T01:55:11.597Z,4.90
2018-09-26T01:58:44.807Z,6.53
2018-09-26T02:02:18.067Z,7.20
2018-09-26T02:05:51.301Z,6.80
2018-09-26T02:09:24.517Z,6.53
2018-09-26T02:12:57.741Z,6.53
2018-09-26T02:16:30.955Z,7.90
2018-09-26T02:20:04.190Z,6.30
2018-09-26T02:23:37.420Z,6.57
2018-09-26T02:27:10.650Z,6.03
2018-09-26T02:30:43.880Z,7.23
2018-09-26T02:34:17.121Z,6.70
2018-09-26T02:37:50.353Z,5.97
2018-09-26T02:41:23.669Z,5.80
2018-09-26T02:44:56.884Z,5.10
2018-09-26T02:48:35.392Z,5.63
2018-09-26T02:52:08.612Z,5.47
2018-09-26T02:55:41.836Z,4.60
2018-09-26T02:59:15.060Z,5.30
2018-09-26T03:02:48.294Z,5.60
2018-09-26T03:06:21.540Z,5.60
2018-09-26T03:09:54.788Z,4.50
2018-09-26T03:13:28.012Z,5.43
2018-09-26T03:17:01.229Z,4.50
2018-09-26T03:20:34.455Z,5.30
2018-09-26T03:24:07.672Z,3.73
2018-09-26T03:27:40.900Z,4.53
2018-09-26T03:31:14.503Z,4.87
2018-09-26T03:34:47.700Z,4.37
2018-09-26T03:38:20.940Z,3.57
2018-09-26T03:41:54.171Z,4.40
2018-09-26T03:45:27.399Z,3.23
2018-09-26T03:49:00.627Z,4.20
2018-09-26T03:52:33.854Z,4.10
2018-09-26T03:56:07.070Z,4.20
2018-09-26T03:59:40.300Z,4.97
2018-09-26T04:03:13.514Z,4.00
2018-09-26T04:06:46.730Z,4.30
2018-09-26T04:10:19.972Z,5.00
2018-09-26T04:13:53.184Z,5.33
2018-09-26T04:17:26.445Z,5.63
2018-09-26T04:20:59.672Z,5.90
2018-09-26T04:24:32.924Z,5.53
2018-09-26T04:28:06.256Z,5.50
2018-09-26T04:31:39.539Z,5.30
2018-09-26T04:35:12.777Z,6.93
2018-09-26T04:38:46.058Z,6.77
2018-09-26T04:42:19.239Z,6.10
2018-09-26T04:45:52.459Z,6.80
2018-09-26T04:49:25.793Z,5.47
2018-09-26T04:52:59.044Z,7.10
2018-09-26T04:56:32.276Z,6.53
2018-09-26T05:00:05.549Z,6.03
2018-09-26T05:03:38.773Z,5.97
2018-09-26T05:07:11.992Z,6.53
2018-09-26T05:10:45.203Z,5.73
2018-09-26T05:14:18.439Z,7.00
2018-09-26T05:17:52.182Z,6.57
2018-09-26T05:21:25.511Z,7.10
2018-09-26T05:24:58.748Z,6.57
2018-09-26T05:28:32.055Z,6.33
2018-09-26T05:32:05.277Z,7.23
2018-09-26T05:35:38.492Z,6.77
2018-09-26T05:39:12.471Z,6.90
2018-09-26T05:42:45.699Z,7.40
2018-09-26T05:46:18.920Z,6.70
2018-09-26T05:49:52.151Z,7.70
2018-09-26T05:53:25.426Z,6.47
2018-09-26T05:56:58.592Z,6.37
2018-09-26T06:00:31.808Z,7.10
2018-09-26T06:04:05.182Z,6.77
2018-09-26T06:07:38.447Z,6.73
2018-09-26T06:11:11.782Z,7.43
2018-09-26T06:14:45.021Z,10.47
2018-09-26T06:18:18.237Z,6.80
2018-09-26T06:21:51.495Z,7.10
2018-09-26T06:25:24.708Z,6.20
2018-09-26T06:28:57.942Z,8.63
2018-09-26T06:32:31.148Z,6.57
2018-09-26T06:36:04.383Z,6.97
2018-09-26T06:39:37.603Z,6.67
2018-09-26T06:43:10.851Z,6.63
2018-09-26T06:46:44.064Z,6.77
2018-09-26T06:50:17.324Z,6.90
2018-09-26T06:53:50.554Z,7.20
2018-09-26T06:57:23.777Z,7.03
2018-09-26T07:00:56.995Z,7.93
2018-09-26T07:04:30.211Z,7.13
2018-09-26T07:08:03.444Z,10.00
2018-09-26T07:11:36.667Z,9.10
2018-09-26T07:15:09.891Z,8.07
2018-09-26T07:18:43.098Z,7.50
2018-09-26T07:22:16.324Z,8.63
2018-09-26T07:25:49.561Z,7.37
2018-09-26T07:29:22.796Z,7.70
2018-09-26T07:32:56.060Z,7.50
2018-09-26T07:36:29.288Z,8.40
2018-09-26T07:40:02.515Z,11.00
2018-09-26T07:43:35.732Z,7.20
2018-09-26T07:47:08.952Z,6.70
2018-09-26T07:50:42.191Z,6.60
2018-09-26T07:54:15.483Z,5.67
2018-09-26T07:57:48.697Z,4.90
2018-09-26T08:01:21.921Z,5.00
2018-09-26T08:04:55.138Z,4.17
2018-09-26T08:08:28.408Z,3.87
2018-09-26T08:12:01.616Z,4.00
2018-09-26T08:15:34.859Z,3.87
2018-09-26T08:19:08.325Z,3.60
2018-09-26T08:22:41.568Z,4.43
2018-09-26T08:26:15.060Z,3.90
2018-09-26T08:29:48.348Z,4.27
2018-09-26T08:33:21.541Z,4.83
2018-09-26T08:36:54.782Z,3.57
2018-09-26T08:40:28.015Z,3.90
2018-09-26T08:44:01.310Z,3.40
2018-09-26T08:47:34.481Z,2.93
2018-09-26T08:51:07.752Z,3.07
2018-09-26T08:54:40.956Z,3.17
2018-09-26T08:58:14.204Z,2.80
2018-09-26T09:01:48.495Z,10.30
2018-09-26T09:05:21.716Z,3.10
2018-09-26T09:08:54.944Z,2.43
2018-09-26T09:12:28.152Z,2.40
2018-09-26T09:16:01.384Z,2.40
2018-09-26T09:19:34.620Z,2.20
2018-09-26T09:23:07.838Z,2.23
2018-09-26T09:26:41.062Z,1.80
2018-09-26T09:30:14.296Z,2.00
2018-09-26T09:33:47.508Z,2.10
2018-09-26T09:37:20.732Z,3.00
2018-09-26T09:40:53.988Z,2.23
2018-09-26T09:44:27.264Z,2.10
2018-09-26T09:48:00.457Z,1.63
2018-09-26T09:51:33.758Z,2.23
2018-09-26T09:55:06.972Z,1.70
2018-09-26T09:58:40.191Z,2.80
2018-09-26T10:02:13.451Z,1.97
2018-09-26T10:05:46.667Z,2.10
2018-09-26T10:09:19.904Z,2.00
2018-09-26T10:12:53.132Z,3.30
2018-09-26T10:16:26.359Z,2.50
2018-09-26T10:19:59.592Z,2.20
2018-09-26T10:23:32.823Z,2.07
2018-09-26T10:27:06.091Z,2.30
2018-09-26T10:30:39.324Z,1.90
2018-09-26T10:34:12.552Z,2.50
2018-09-26T10:37:45.808Z,2.00
2018-09-26T10:41:19.032Z,2.53
2018-09-26T10:44:52.262Z,2.77
2018-09-26T10:48:25.484Z,2.20
2018-09-26T10:51:58.718Z,2.57
2018-09-26T10:55:31.972Z,3.00
2018-09-26T10:59:05.193Z,2.30
2018-09-26T11:02:38.428Z,2.60
2018-09-26T11:06:11.658Z,1.50
2018-09-26T11:09:44.905Z,1.50
2018-09-26T11:13:18.141Z,2.00
2018-09-26T11:16:51.370Z,1.57
2018-09-26T11:20:24.648Z,2.03
2018-09-26T11:23:57.848Z,1.73
2018-09-26T11:27:31.099Z,1.43
2018-09-26T11:31:04.528Z,2.23
2018-09-26T11:34:38.469Z,1.60
2018-09-26T11:38:11.699Z,2.27
2018-09-26T11:41:44.935Z,1.73
2018-09-26T11:45:18.136Z,1.83
2018-09-26T11:48:51.377Z,1.67
2018-09-26T11:52:24.696Z,1.53
2018-09-26T11:55:57.866Z,1.97
2018-09-26T11:59:31.110Z,2.20
2018-09-26T12:03:04.385Z,2.07
2018-09-26T12:06:37.615Z,2.07
2018-09-26T12:10:10.896Z,2.00
2018-09-26T12:13:44.086Z,1.50
2018-09-26T12:17:17.320Z,1.70
2018-09-26T12:20:50.562Z,1.93
2018-09-26T12:24:23.847Z,1.77
2018-09-26T12:27:57.134Z,2.00
2018-09-26T12:31:30.259Z,1.70
2018-09-26T12:35:03.491Z,2.10
2018-09-26T12:38:36.701Z,2.80
2018-09-26T12:42:10.002Z,1.90
2018-09-26T12:45:43.198Z,2.40
2018-09-26T12:49:16.420Z,1.90
2018-09-26T12:52:49.690Z,1.77
2018-09-26T12:56:22.918Z,2.20
2018-09-26T12:59:56.145Z,2.20
2018-09-26T13:03:29.367Z,1.93
2018-09-26T13:07:02.588Z,2.23
2018-09-26T13:10:35.824Z,2.33
2018-09-26T13:14:09.111Z,2.40
2018-09-26T13:17:42.291Z,1.60
2018-09-26T13:21:15.533Z,1.83
2018-09-26T13:24:48.748Z,3.10
2018-09-26T13:28:22.012Z,2.70
2018-09-26T13:31:55.207Z,2.27
2018-09-26T13:35:28.449Z,2.20
2018-09-26T13:39:01.749Z,2.27
2018-09-26T13:42:34.932Z,2.17
2018-09-26T13:46:08.190Z,2.23
2018-09-26T13:49:41.413Z,2.20
2018-09-26T13:53:14.637Z,2.03
2018-09-26T13:56:47.865Z,1.90
2018-09-26T14:00:21.106Z,1.63
2018-09-26T14:03:54.328Z,2.10
2018-09-26T14:07:27.580Z,1.67
2018-09-26T14:11:00.814Z,1.80
2018-09-26T14:14:34.048Z,1.63
2018-09-26T14:18:07.622Z,1.50
2018-09-26T14:21:40.857Z,1.60
2018-09-26T14:25:14.085Z,2.27
2018-09-26T14:28:47.327Z,1.73
2018-09-26T14:32:20.570Z,1.63
2018-09-26T14:35:53.800Z,1.50
2018-09-26T14:39:27.104Z,1.40
2018-09-26T14:43:00.263Z,1.97
2018-09-26T14:46:33.501Z,1.53
2018-09-26T14:50:07.570Z,1.50
2018-09-26T14:53:40.825Z,1.73
2018-09-26T14:57:14.085Z,1.60
2018-09-26T15:00:47.318Z,1.57
2018-09-26T15:04:20.674Z,1.60
2018-09-26T15:07:53.801Z,1.40
2018-09-26T15:11:27.018Z,1.80
2018-09-26T15:15:00.255Z,2.13
2018-09-26T15:18:33.468Z,1.50
2018-09-26T15:22:06.747Z,1.50
2018-09-26T15:25:39.989Z,2.03
2018-09-26T15:29:13.226Z,1.70
2018-09-26T15:32:46.436Z,2.10
2018-09-26T15:36:19.735Z,1.90
2018-09-26T15:39:53.017Z,2.00
2018-09-26T15:43:27.148Z,3.30
2018-09-26T15:47:00.362Z,2.80
2018-09-26T15:50:33.627Z,3.17
2018-09-26T15:54:06.624Z,4.13
2018-09-26T15:57:39.817Z,2.40
2018-09-26T16:01:13.039Z,2.30
2018-09-26T16:04:46.282Z,2.90
2018-09-26T16:08:19.535Z,2.70
2018-09-26T16:11:52.764Z,2.40
2018-09-26T16:15:25.998Z,2.33
2018-09-26T16:18:59.220Z,3.20
2018-09-26T16:22:32.446Z,3.40
2018-09-26T16:26:05.709Z,4.40
2018-09-26T16:29:38.916Z,4.47
2018-09-26T16:33:12.156Z,4.83
2018-09-26T16:36:45.368Z,4.20
2018-09-26T16:40:18.687Z,3.60
2018-09-26T16:43:51.843Z,7.47
2018-09-26T16:47:25.077Z,5.03
2018-09-26T16:50:58.284Z,7.43
2018-09-26T16:54:31.691Z,6.00
2018-09-26T16:58:04.992Z,5.20
2018-09-26T17:01:38.229Z,8.63
2018-09-26T17:05:11.695Z,7.40
2018-09-26T17:08:44.924Z,7.80
2018-09-26T17:12:18.231Z,8.00
2018-09-26T17:15:51.401Z,7.90
2018-09-26T17:19:24.846Z,14.10
2018-09-26T17:22:58.127Z,12.23
2018-09-26T17:26:31.364Z,10.97
2018-09-26T17:30:04.656Z,8.17
2018-09-26T17:33:37.908Z,5.77
2018-09-26T17:37:11.144Z,4.30
2018-09-26T17:40:44.378Z,6.33
2018-09-26T17:44:17.615Z,5.60
2018-09-26T17:47:50.857Z,4.10
2018-09-26T17:51:24.089Z,4.70
2018-09-26T17:54:57.781Z,6.03
2018-09-26T17:58:31.073Z,5.43
2018-09-26T18:02:04.436Z,5.97
2018-09-26T18:05:37.738Z,5.30
2018-09-26T18:09:11.947Z,7.60
2018-09-26T18:12:45.201Z,6.97
2018-09-26T18:16:18.421Z,7.60
2018-09-26T18:19:51.673Z,7.93
2018-09-26T18:23:24.983Z,6.97
2018-09-26T18:26:58.152Z,6.70
2018-09-26T18:30:31.440Z,9.63
2018-09-26T18:34:04.670Z,8.20
2018-09-26T18:37:38.055Z,10.40
2018-09-26T18:41:11.324Z,8.30
2018-09-26T18:44:44.576Z,8.60
2018-09-26T18:48:17.796Z,7.30
2018-09-26T18:51:51.036Z,8.47
2018-09-26T18:55:24.252Z,10.30
2018-09-26T18:58:57.566Z,11.53
2018-09-26T19:02:30.718Z,11.43
2018-09-26T19:06:03.986Z,10.80
2018-09-26T19:09:37.232Z,11.00
2018-09-26T19:13:10.471Z,14.27
2018-09-26T19:16:43.708Z,14.87
2018-09-26T19:20:17.516Z,17.83
2018-09-26T19:23:50.939Z,12.97
2018-09-26T19:27:24.208Z,7.93
2018-09-26T19:30:58.000Z,6.20
2018-09-26T19:34:31.272Z,6.60
2018-09-26T19:38:04.667Z,6.00
2018-09-26T19:41:37.984Z,6.70
2018-09-26T19:45:11.475Z,8.00
2018-09-26T19:48:44.617Z,7.13
2018-09-26T19:52:18.101Z,7.50
2018-09-26T19:55:51.320Z,7.80
2018-09-26T19:59:24.559Z,7.40
2018-09-26T20:02:57.844Z,6.57
2018-09-26T20:06:31.101Z,7.10
2018-09-26T20:10:04.480Z,8.40
2018-09-26T20:13:37.721Z,8.07
2018-09-26T20:17:10.945Z,7.30
2018-09-26T20:20:44.173Z,6.97
2018-09-26T20:24:17.416Z,7.20
2018-09-26T20:27:50.676Z,9.00
2018-09-26T20:31:23.915Z,8.67
2018-09-26T20:34:57.177Z,10.37
2018-09-26T20:38:30.399Z,8.67
2018-09-26T20:42:03.613Z,8.73
2018-09-26T20:45:36.990Z,8.40
2018-09-26T20:49:10.181Z,8.73
2018-09-26T20:52:43.419Z,8.30
2018-09-26T20:56:16.707Z,9.93
2018-09-26T20:59:49.971Z,10.20
2018-09-26T21:03:23.175Z,8.27
2018-09-26T21:06:56.404Z,7.70
2018-09-26T21:10:29.624Z,7.33
2018-09-26T21:14:02.851Z,8.30
2018-09-26T21:17:36.128Z,7.33
2018-09-26T21:21:09.324Z,9.13
2018-09-26T21:24:42.565Z,9.13
2018-09-26T21:28:15.795Z,8.77
2018-09-26T21:31:49.020Z,8.93
2018-09-26T21:35:22.279Z,7.57
2018-09-26T21:38:55.696Z,7.20
2018-09-26T21:42:28.896Z,6.63
2018-09-26T21:46:02.112Z,6.17
2018-09-26T21:49:35.332Z,5.60
2018-09-26T21:53:08.589Z,6.50
2018-09-26T21:56:41.832Z,6.30
2018-09-26T22:00:15.100Z,6.07
2018-09-26T22:03:48.328Z,6.87
2018-09-26T22:07:21.568Z,7.00
2018-09-26T22:10:54.785Z,6.83
2018-09-26T22:14:28.010Z,5.87
2018-09-26T22:18:01.226Z,6.47
2018-09-26T22:21:34.446Z,7.90
2018-09-26T22:25:07.676Z,7.73
2018-09-26T22:28:40.880Z,7.70
2018-09-26T22:32:14.100Z,7.00
2018-09-26T22:35:47.316Z,7.47
2018-09-26T22:39:20.547Z,8.40
2018-09-26T22:42:53.800Z,8.30
2018-09-26T22:46:27.015Z,8.23
2018-09-26T22:50:00.260Z,8.67
2018-09-26T22:53:33.497Z,7.17
2018-09-26T22:57:06.727Z,7.70
2018-09-26T23:00:39.989Z,21.83
2018-09-26T23:04:13.213Z,8.40
2018-09-26T23:07:46.441Z,8.33
2018-09-26T23:11:19.669Z,10.77
2018-09-26T23:14:52.907Z,8.67
2018-09-26T23:18:26.125Z,6.93
2018-09-26T23:21:59.348Z,7.83
2018-09-26T23:25:32.565Z,8.47
2018-09-26T23:29:05.832Z,7.07
2018-09-26T23:32:39.052Z,8.90
2018-09-26T23:36:12.273Z,7.60
2018-09-26T23:39:45.515Z,8.00
2018-09-26T23:43:18.745Z,7.50
2018-09-26T23:46:51.975Z,6.73
2018-09-26T23:50:25.185Z,7.20
2018-09-26T23:53:58.868Z,7.00
2018-09-26T23:57:32.218Z,7.10
